Terminal Aerodrome Forecast
Issued by NWS

Home | Current Version | Previous Version | Text Only | Print | Product List | Glossary On
Versions: 1 2 3 4 5 6 7 8 9 10 11 12 13 14 15 16 17 18 19 20
000
FTUS43 KDLH 172333
TAFHYR
TAF
KHYR 172333Z 1800/1824 22008KT P6SM SKC WS020/28045KT
     FM180900 23004KT P6SM BKN150
     FM181200 22005KT P6SM VCSH BKN035
     FM181800 24008KT P6SM SCT035=

USA.gov is the U.S. government's official web portal to all federal, state and local government web resources and services.